Time;durP1;ratioP1;P1;durP2;ratioP2;P2;SDS_P1;SDS_P2;PMS_P1;PMS_P2;Temp;Humidity;BMP_temperature;BMP_pressure;BME280_temperature;BME280_humidity;BME280_pressure;Samples;Min_cycle;Max_cycle;Signal;HPM_P1;HPM_P2
2021/12/06 00:01:09;;;;;;;18.85;2.92;;;8.70;99.90;;;;;;4952818;28;20031;-87
2021/12/06 00:03:42;;;;;;;18.52;2.83;;;8.70;99.90;;;;;;4951549;29;20024;-86
2021/12/06 00:06:09;;;;;;;26.73;3.33;;;8.60;99.90;;;;;;4952740;28;20512;-86
2021/12/06 00:08:35;;;;;;;18.67;3.05;;;8.60;99.90;;;;;;4952798;28;20027;-87
2021/12/06 00:11:07;;;;;;;18.65;2.30;;;8.60;99.90;;;;;;4952449;28;20027;-87
2021/12/06 00:13:35;;;;;;;18.13;2.10;;;8.60;99.90;;;;;;4952676;28;20020;-86
2021/12/06 00:16:07;;;;;;;19.15;3.08;;;8.70;99.90;;;;;;4952538;28;20046;-87
2021/12/06 00:18:32;;;;;;;26.25;3.10;;;8.70;99.90;;;;;;4952393;28;20055;-87
2021/12/06 00:20:58;;;;;;;12.50;2.70;;;8.60;99.90;;;;;;4952575;28;20058;-87
2021/12/06 00:23:24;;;;;;;18.30;2.78;;;8.60;99.90;;;;;;4951306;29;20030;-87
2021/12/06 00:25:49;;;;;;;18.45;3.17;;;8.60;99.90;;;;;;4952382;28;20031;-88
2021/12/06 00:28:15;;;;;;;23.75;2.67;;;8.50;99.90;;;;;;4952109;28;20106;-87
2021/12/06 00:30:41;;;;;;;16.83;3.40;;;8.50;99.90;;;;;;4950939;29;20031;-87
2021/12/06 00:33:07;;;;;;;16.70;2.75;;;8.50;99.90;;;;;;4950834;29;20027;-86
2021/12/06 00:35:33;;;;;;;20.35;2.35;;;8.50;99.90;;;;;;4952362;28;20514;-87
2021/12/06 00:38:00;;;;;;;18.33;2.40;;;8.50;99.90;;;;;;4951015;29;20033;-87
2021/12/06 00:40:33;;;;;;;24.05;3.65;;;8.50;99.90;;;;;;4950825;29;20135;-86
2021/12/06 00:42:59;;;;;;;16.40;2.58;;;8.50;99.90;;;;;;4952254;28;20099;-86
2021/12/06 00:45:25;;;;;;;18.38;2.85;;;8.50;99.90;;;;;;4950821;29;20118;-87
2021/12/06 00:47:51;;;;;;;16.58;3.13;;;8.60;99.90;;;;;;4952101;28;20034;-86
2021/12/06 00:50:19;;;;;;;21.10;3.08;;;8.60;99.90;;;;;;4952153;28;20078;-87
2021/12/06 00:52:45;;;;;;;15.25;2.83;;;8.50;99.90;;;;;;4951985;28;20028;-86
2021/12/06 00:55:11;;;;;;;19.05;2.50;;;8.50;99.90;;;;;;4950750;29;20027;-87
2021/12/06 00:57:38;;;;;;;19.90;2.95;;;8.50;99.90;;;;;;4969561;28;20121;-87
2021/12/06 01:00:25;;;;;;;20.73;3.20;;;8.50;99.90;;;;;;4973183;28;20066;-86
2021/12/06 01:02:52;;;;;;;23.63;2.80;;;8.50;99.90;;;;;;4973294;28;20024;-86
2021/12/06 01:05:22;;;;;;;20.00;2.70;;;8.50;99.90;;;;;;4994599;28;20038;-86
2021/12/06 01:07:48;;;;;;;17.25;2.60;;;8.50;99.90;;;;;;4994635;28;20105;-87
2021/12/06 01:10:13;;;;;;;15.75;2.58;;;8.50;99.90;;;;;;4994430;28;20110;-87
2021/12/06 01:12:39;;;;;;;17.75;2.65;;;8.60;99.90;;;;;;4994525;28;20045;-87
2021/12/06 01:15:07;;;;;;;21.45;3.10;;;8.60;99.90;;;;;;4977007;28;20027;-87
2021/12/06 01:17:32;;;;;;;22.02;3.05;;;8.60;99.90;;;;;;4994609;28;20379;-86
2021/12/06 01:19:58;;;;;;;21.98;2.47;;;8.60;99.90;;;;;;4994462;28;20030;-87
2021/12/06 01:25:01;;;;;;;23.70;3.40;;;8.60;99.90;;;;;;4994176;28;20030;-87
2021/12/06 01:40:53;;;;;;;20.45;3.65;;;8.70;99.90;;;;;;4994196;28;20406;-87
2021/12/06 01:43:19;;;;;;;21.92;2.90;;;8.70;99.90;;;;;;4976567;28;20030;-86
2021/12/06 01:45:44;;;;;;;14.73;3.15;;;8.70;99.90;;;;;;4993836;28;20026;-86
2021/12/06 01:48:10;;;;;;;18.65;2.42;;;8.70;99.90;;;;;;4976473;28;20031;-87
2021/12/06 01:50:37;;;;;;;25.67;2.95;;;8.70;99.90;;;;;;4993954;28;20077;-86
2021/12/06 01:53:04;;;;;;;23.17;3.15;;;8.70;99.90;;;;;;4994040;28;20022;-87
2021/12/06 01:55:34;;;;;;;26.17;2.90;;;8.70;99.90;;;;;;4993748;28;20036;-86
2021/12/06 01:58:01;;;;;;;18.15;2.95;;;8.60;99.90;;;;;;4993439;28;20050;-87
2021/12/06 02:00:30;;;;;;;20.23;2.92;;;8.60;99.90;;;;;;4976404;28;20615;-86
2021/12/06 02:02:56;;;;;;;18.15;2.40;;;8.60;99.90;;;;;;4978947;28;20085;-87
2021/12/06 02:05:22;;;;;;;15.63;2.28;;;8.60;99.90;;;;;;4993469;28;20038;-87
2021/12/06 02:07:47;;;;;;;18.77;3.22;;;8.60;99.90;;;;;;4993718;28;20033;-87
2021/12/06 02:10:13;;;;;;;22.27;2.83;;;8.60;99.90;;;;;;4993502;28;20101;-86
2021/12/06 02:12:39;;;;;;;18.45;2.22;;;8.60;99.90;;;;;;4993608;28;20030;-87
2021/12/06 02:15:13;;;;;;;14.23;2.50;;;8.60;99.90;;;;;;4974968;28;20467;-87
2021/12/06 02:17:43;;;;;;;21.42;3.63;;;8.60;99.90;;;;;;4993559;28;20026;-86
2021/12/06 02:20:22;;;;;;;16.92;1.98;;;8.60;99.90;;;;;;4975602;28;20046;-87
2021/12/06 02:22:48;;;;;;;19.60;2.85;;;8.60;99.90;;;;;;4993259;28;20106;-87
2021/12/06 02:25:18;;;;;;;22.50;2.40;;;8.50;99.90;;;;;;4975678;28;20117;-86
2021/12/06 02:27:44;;;;;;;13.70;1.85;;;8.50;99.90;;;;;;4993243;28;20061;-87
2021/12/06 02:30:12;;;;;;;16.98;2.65;;;8.50;99.90;;;;;;4993195;28;20015;-86
2021/12/06 02:32:37;;;;;;;19.05;2.67;;;8.40;99.90;;;;;;4993202;28;20510;-87
2021/12/06 02:35:10;;;;;;;12.77;2.17;;;8.40;99.90;;;;;;4993056;28;20022;-87
2021/12/06 02:37:36;;;;;;;14.98;2.35;;;8.40;99.90;;;;;;4993057;28;20026;-86
2021/12/06 02:40:08;;;;;;;16.00;2.60;;;8.30;99.90;;;;;;4975348;28;20115;-86
2021/12/06 02:42:34;;;;;;;9.45;1.98;;;8.30;99.90;;;;;;4993007;28;20038;-87
2021/12/06 02:45:00;;;;;;;17.73;2.50;;;8.30;99.90;;;;;;4992950;28;20026;-86
2021/12/06 02:47:26;;;;;;;15.95;2.13;;;8.30;99.90;;;;;;4993116;28;20085;-87
2021/12/06 02:49:51;;;;;;;14.20;2.38;;;8.30;99.90;;;;;;4992944;28;20026;-88
2021/12/06 02:52:18;;;;;;;19.88;2.53;;;8.30;99.90;;;;;;4975282;28;20085;-87
2021/12/06 02:54:44;;;;;;;15.65;2.38;;;8.30;99.90;;;;;;4975175;28;20027;-87
2021/12/06 02:59:39;;;;;;;14.18;2.38;;;8.20;99.90;;;;;;4992647;28;20442;-87
2021/12/06 03:02:18;;;;;;;24.25;3.17;;;8.20;99.90;;;;;;4992722;28;20404;-87
2021/12/06 03:04:45;;;;;;;17.55;2.63;;;8.30;99.90;;;;;;4992527;28;20360;-87
2021/12/06 03:07:11;;;;;;;20.60;3.08;;;8.20;99.90;;;;;;4975036;28;20451;-87
2021/12/06 03:09:41;;;;;;;17.98;2.80;;;8.30;99.90;;;;;;4992398;28;20499;-86
2021/12/06 03:12:12;;;;;;;17.33;3.67;;;8.30;99.90;;;;;;4992253;28;20109;-86
2021/12/06 03:14:45;;;;;;;16.13;2.55;;;8.40;99.90;;;;;;4992249;28;20026;-91
2021/12/06 03:17:14;;;;;;;18.38;2.35;;;8.40;99.90;;;;;;4992332;28;20593;-87
2021/12/06 03:19:40;;;;;;;17.92;2.47;;;8.40;99.90;;;;;;4974562;28;20026;-86
2021/12/06 03:22:08;;;;;;;21.13;2.45;;;8.30;99.90;;;;;;4992235;28;20049;-86
2021/12/06 03:24:35;;;;;;;18.00;2.30;;;8.30;99.90;;;;;;4974476;28;20687;-86
2021/12/06 03:27:01;;;;;;;18.33;3.03;;;8.30;99.90;;;;;;4974353;28;20391;-87
2021/12/06 03:29:28;;;;;;;22.02;2.83;;;8.30;99.90;;;;;;4992088;28;20032;-87
2021/12/06 03:31:54;;;;;;;12.30;2.65;;;8.30;99.90;;;;;;4974508;28;20022;-86
2021/12/06 03:34:26;;;;;;;14.48;2.60;;;8.30;99.90;;;;;;4974443;28;20084;-87
2021/12/06 03:36:57;;;;;;;16.00;2.28;;;8.20;99.90;;;;;;4991798;28;20033;-86
2021/12/06 03:39:29;;;;;;;21.30;2.15;;;8.30;99.90;;;;;;4991915;28;20025;-87
2021/12/06 03:41:58;;;;;;;15.35;2.03;;;8.20;99.90;;;;;;4991786;28;20027;-86
2021/12/06 03:44:24;;;;;;;20.00;2.40;;;8.20;99.90;;;;;;4991917;28;20478;-86
2021/12/06 03:46:57;;;;;;;19.70;2.55;;;8.20;99.90;;;;;;4991649;28;20038;-86
2021/12/06 03:49:23;;;;;;;17.52;2.45;;;8.20;99.90;;;;;;4991532;28;20048;-86
2021/12/06 03:51:49;;;;;;;17.95;2.03;;;8.20;99.90;;;;;;4991642;28;20041;-87
2021/12/06 03:54:18;;;;;;;18.73;3.42;;;8.10;99.90;;;;;;4991548;28;20022;-86
2021/12/06 03:56:44;;;;;;;12.07;2.35;;;8.10;99.90;;;;;;4991227;28;20125;-86
2021/12/06 03:59:10;;;;;;;14.18;2.03;;;8.10;99.90;;;;;;4991493;28;20398;-86
2021/12/06 04:01:37;;;;;;;25.60;3.75;;;8.10;99.90;;;;;;4991663;28;20403;-86
2021/12/06 04:04:04;;;;;;;16.65;2.10;;;8.10;99.90;;;;;;4991439;28;20030;-86
2021/12/06 04:06:31;;;;;;;13.20;3.33;;;8.10;99.90;;;;;;4990753;28;20692;-87
2021/12/06 04:08:57;;;;;;;15.13;2.50;;;8.00;99.90;;;;;;4991276;28;20027;-87
2021/12/06 04:11:23;;;;;;;15.68;2.95;;;8.10;99.90;;;;;;4991173;28;20652;-87
2021/12/06 04:13:49;;;;;;;8.15;1.60;;;8.10;99.90;;;;;;4973959;28;20426;-87
2021/12/06 04:16:15;;;;;;;14.15;2.17;;;8.20;99.90;;;;;;4973842;28;20092;-87
2021/12/06 04:18:41;;;;;;;23.63;2.80;;;8.20;99.90;;;;;;4991304;28;20142;-86
2021/12/06 04:21:07;;;;;;;20.17;2.20;;;8.20;99.90;;;;;;4991032;28;20030;-86
2021/12/06 04:23:34;;;;;;;14.45;2.30;;;8.20;99.90;;;;;;4991121;28;20487;-87
2021/12/06 04:26:00;;;;;;;21.95;2.63;;;8.10;99.90;;;;;;4990824;28;20506;-87
2021/12/06 04:28:29;;;;;;;15.75;2.42;;;8.10;99.90;;;;;;4991001;28;20018;-86
2021/12/06 04:30:56;;;;;;;18.85;2.10;;;8.10;99.90;;;;;;4991100;28;20026;-86
2021/12/06 04:33:21;;;;;;;10.70;2.00;;;8.00;99.90;;;;;;4991015;28;20491;-86
2021/12/06 04:35:49;;;;;;;17.48;2.85;;;8.00;99.90;;;;;;4973393;28;20022;-87
2021/12/06 04:38:16;;;;;;;13.98;2.42;;;7.90;99.90;;;;;;5005405;28;20026;-87
2021/12/06 04:40:42;;;;;;;21.52;2.22;;;7.90;99.90;;;;;;4990977;28;20080;-86
2021/12/06 04:43:09;;;;;;;14.38;2.28;;;7.90;99.90;;;;;;4990785;28;20032;-87
2021/12/06 04:45:35;;;;;;;14.82;2.55;;;7.90;99.90;;;;;;4973096;28;20045;-86
2021/12/06 04:48:02;;;;;;;15.52;1.95;;;7.80;99.90;;;;;;4990754;28;20018;-86
2021/12/06 04:50:32;;;;;;;11.40;2.08;;;7.90;99.90;;;;;;4990812;28;20058;-87
2021/12/06 04:53:09;;;;;;;20.60;2.15;;;7.90;99.90;;;;;;4990833;28;20017;-86
2021/12/06 04:55:43;;;;;;;16.45;3.05;;;7.80;99.90;;;;;;4973176;28;20046;-87
2021/12/06 04:58:12;;;;;;;14.05;2.03;;;7.80;99.90;;;;;;4990492;28;20388;-86
2021/12/06 05:00:50;;;;;;;14.65;1.58;;;7.80;99.90;;;;;;4990652;28;20027;-87
2021/12/06 05:03:17;;;;;;;12.68;1.80;;;7.80;99.90;;;;;;4973118;28;20022;-86
2021/12/06 05:05:50;;;;;;;10.35;1.60;;;7.70;99.90;;;;;;4972832;28;20038;-87
2021/12/06 05:08:24;;;;;;;12.00;1.55;;;7.70;99.90;;;;;;4973017;28;20037;-86
2021/12/06 05:10:51;;;;;;;9.07;1.73;;;7.70;99.90;;;;;;4990544;28;20368;-87
2021/12/06 05:13:19;;;;;;;18.55;1.98;;;7.70;99.90;;;;;;4973118;28;20035;-87
2021/12/06 05:15:45;;;;;;;16.35;2.05;;;7.70;99.90;;;;;;4990554;28;20023;-87
2021/12/06 05:18:11;;;;;;;14.27;1.70;;;7.70;99.90;;;;;;4973124;28;20038;-86
2021/12/06 05:20:37;;;;;;;19.63;2.17;;;7.70;99.90;;;;;;4990394;28;20487;-87
2021/12/06 05:23:04;;;;;;;13.40;1.48;;;7.70;99.90;;;;;;4990494;28;20046;-87
2021/12/06 05:25:30;;;;;;;11.23;1.70;;;7.70;99.90;;;;;;4990263;28;20029;-86
2021/12/06 05:27:58;;;;;;;16.48;2.03;;;7.60;99.90;;;;;;4990279;28;20041;-87
2021/12/06 05:30:25;;;;;;;11.57;1.67;;;7.50;99.90;;;;;;4972951;28;20117;-86
2021/12/06 05:32:51;;;;;;;14.55;1.85;;;7.50;99.90;;;;;;4973025;28;20512;-86
2021/12/06 05:35:18;;;;;;;13.85;1.75;;;7.60;99.90;;;;;;4990291;28;20014;-87
2021/12/06 05:37:49;;;;;;;14.35;2.65;;;7.50;99.90;;;;;;4990399;28;20030;-87
2021/12/06 05:40:19;;;;;;;14.20;2.00;;;7.60;99.90;;;;;;4990059;28;20608;-87
2021/12/06 05:42:46;;;;;;;10.77;2.08;;;7.50;99.90;;;;;;4990109;28;20454;-87
2021/12/06 05:45:13;;;;;;;13.88;1.98;;;7.50;99.90;;;;;;4990175;28;20030;-87
2021/12/06 05:47:39;;;;;;;13.65;3.03;;;7.50;99.90;;;;;;4990230;28;20052;-87
2021/12/06 05:50:06;;;;;;;14.40;2.45;;;7.40;99.90;;;;;;4992297;28;20096;-86
2021/12/06 05:52:31;;;;;;;12.20;2.15;;;7.50;99.90;;;;;;4993895;28;20034;-87
2021/12/06 05:54:57;;;;;;;19.15;2.22;;;7.40;99.90;;;;;;4993635;28;20085;-86
2021/12/06 05:57:23;;;;;;;17.95;2.08;;;7.30;99.90;;;;;;4975960;28;20058;-87
2021/12/06 05:59:48;;;;;;;21.65;2.08;;;7.30;99.90;;;;;;4993713;28;20631;-86
2021/12/06 06:02:15;;;;;;;13.15;1.80;;;7.30;99.90;;;;;;4993755;28;20537;-87
2021/12/06 06:04:41;;;;;;;11.20;2.33;;;7.30;99.90;;;;;;4976201;28;20424;-86
2021/12/06 06:07:07;;;;;;;11.10;1.83;;;7.30;99.90;;;;;;4993627;28;20116;-87
2021/12/06 06:09:33;;;;;;;15.00;1.90;;;7.30;99.90;;;;;;4993467;28;20126;-86
2021/12/06 06:11:59;;;;;;;16.60;2.45;;;7.30;99.90;;;;;;4976032;28;20438;-86
2021/12/06 06:14:26;;;;;;;11.10;1.52;;;7.30;99.90;;;;;;4993502;28;20570;-86
2021/12/06 06:16:53;;;;;;;15.43;2.40;;;7.30;99.90;;;;;;4975737;28;20026;-86
2021/12/06 06:19:22;;;;;;;12.57;3.80;;;7.30;99.90;;;;;;5008407;28;20030;-86
2021/12/06 06:21:48;;;;;;;14.73;3.10;;;7.30;99.90;;;;;;4993396;28;20033;-86
2021/12/06 06:24:14;;;;;;;12.60;3.40;;;7.30;99.90;;;;;;4975543;28;20027;-86
2021/12/06 06:26:41;;;;;;;14.48;2.80;;;7.30;99.90;;;;;;4975731;28;20039;-87
2021/12/06 06:29:07;;;;;;;15.93;2.35;;;7.30;99.90;;;;;;4993396;28;20116;-86
2021/12/06 06:31:33;;;;;;;9.57;2.53;;;7.30;99.90;;;;;;4975682;28;20038;-86
2021/12/06 06:33:58;;;;;;;17.23;2.53;;;7.20;99.90;;;;;;4993195;28;20027;-86
2021/12/06 06:36:24;;;;;;;16.83;4.05;;;7.20;99.90;;;;;;4993020;28;20087;-86
2021/12/06 06:38:50;;;;;;;15.32;3.15;;;7.20;99.90;;;;;;4975446;28;20022;-86
2021/12/06 06:41:15;;;;;;;15.10;3.53;;;7.10;99.90;;;;;;4992818;28;20034;-87
2021/12/06 06:43:41;;;;;;;12.18;3.85;;;7.10;99.90;;;;;;5008019;28;20517;-86
2021/12/06 06:46:07;;;;;;;13.27;3.70;;;7.00;99.90;;;;;;4975527;28;20449;-86
2021/12/06 06:48:33;;;;;;;14.45;4.03;;;7.00;99.90;;;;;;4975351;28;20026;-86
2021/12/06 06:50:59;;;;;;;14.65;4.30;;;7.00;99.90;;;;;;4992702;28;20506;-86
2021/12/06 06:53:26;;;;;;;17.67;4.88;;;6.90;99.90;;;;;;4992800;28;20026;-86
2021/12/06 06:55:53;;;;;;;22.48;3.40;;;6.90;99.90;;;;;;4974982;28;20113;-86
2021/12/06 06:58:19;;;;;;;14.18;3.30;;;6.90;99.90;;;;;;4992666;28;20046;-86
2021/12/06 07:00:44;;;;;;;15.25;4.07;;;6.90;99.90;;;;;;4992251;28;20034;-86
2021/12/06 07:03:10;;;;;;;18.02;4.03;;;7.00;99.90;;;;;;4992663;28;20032;-86
2021/12/06 07:05:37;;;;;;;18.75;3.80;;;7.00;99.90;;;;;;4992558;28;20034;-86
2021/12/06 07:08:03;;;;;;;16.52;3.97;;;7.00;99.90;;;;;;4975228;28;20084;-85
2021/12/06 07:10:29;;;;;;;8.98;3.00;;;6.90;99.90;;;;;;5007299;28;20026;-86
2021/12/06 07:12:56;;;;;;;15.30;3.25;;;7.00;99.90;;;;;;4992351;28;20117;-86
2021/12/06 07:15:25;;;;;;;12.15;3.10;;;7.00;99.90;;;;;;4992457;28;20511;-86
2021/12/06 07:17:51;;;;;;;17.52;3.63;;;7.00;99.90;;;;;;4992414;28;20030;-86
2021/12/06 07:28:12;;;;;;;13.68;4.05;;;7.00;99.90;;;;;;4938367;29;20142;-96
2021/12/06 07:30:38;;;;;;;11.18;4.18;;;7.10;99.90;;;;;;4923151;29;20031;-93
2021/12/06 07:33:07;;;;;;;21.10;9.35;;;7.10;99.90;;;;;;4957587;28;20022;-93
2021/12/06 07:36:00;;;;;;;24.25;10.27;;;7.20;99.90;;;;;;4982509;28;20141;-93
2021/12/06 07:38:36;;;;;;;20.02;9.00;;;7.20;99.90;;;;;;4972122;28;20115;-92
2021/12/06 07:52:49;;;;;;;26.80;7.57;;;7.30;99.90;;;;;;4932615;29;20070;-94
2021/12/06 07:59:19;;;;;;;24.73;9.82;;;7.40;99.90;;;;;;4913371;29;20104;-93
2021/12/06 08:01:50;;;;;;;26.13;9.88;;;7.50;99.90;;;;;;4898239;29;20127;-92
2021/12/06 08:04:40;;;;;;;19.40;9.93;;;7.50;99.90;;;;;;4926647;29;20371;-94
2021/12/06 08:07:37;;;;;;;26.48;10.75;;;7.50;99.90;;;;;;4920421;29;20083;-96
2021/12/06 08:10:06;;;;;;;28.45;12.23;;;7.50;99.90;;;;;;4957009;28;20066;-93
2021/12/06 08:37:34;;;;;;;25.05;9.02;;;8.00;99.90;;;;;;4677806;30;20049;-92
2021/12/06 08:40:32;;;;;;;25.05;8.68;;;8.20;99.90;;;;;;4714551;30;20088;-91
2021/12/06 08:43:01;;;;;;;22.33;9.38;;;8.30;99.90;;;;;;4801252;29;20178;-92
2021/12/06 08:45:59;;;;;;;27.23;9.40;;;8.40;99.90;;;;;;4817672;29;20045;-92
2021/12/06 08:48:37;;;;;;;21.50;8.80;;;8.50;99.90;;;;;;4927488;28;20063;-91
2021/12/06 08:51:55;;;;;;;20.98;8.50;;;8.60;99.90;;;;;;4963841;28;20351;-92
2021/12/06 08:54:26;;;;;;;25.05;7.68;;;8.60;99.90;;;;;;4972277;28;20053;-90
2021/12/06 08:56:54;;;;;;;24.23;8.68;;;8.70;99.90;;;;;;4993220;28;20026;-92
2021/12/06 08:59:22;;;;;;;24.45;9.63;;;8.80;99.90;;;;;;5011832;28;20049;-90
2021/12/06 09:01:56;;;;;;;23.92;9.25;;;8.90;99.90;;;;;;4993573;28;20109;-91
2021/12/06 09:04:23;;;;;;;22.67;9.07;;;9.00;99.90;;;;;;4993937;28;20541;-90
2021/12/06 09:06:51;;;;;;;27.55;9.70;;;9.20;99.90;;;;;;4993029;28;20133;-93
2021/12/06 09:09:18;;;;;;;26.20;10.40;;;9.30;99.90;;;;;;4993650;28;20033;-91
2021/12/06 09:11:45;;;;;;;14.30;5.35;;;9.30;99.90;;;;;;5011797;28;20022;-91
2021/12/06 09:14:13;;;;;;;18.88;4.97;;;9.30;99.90;;;;;;4993302;28;20484;-91
2021/12/06 09:16:40;;;;;;;19.67;4.30;;;9.40;99.90;;;;;;4993321;28;20026;-89
2021/12/06 09:19:08;;;;;;;18.58;4.57;;;9.50;99.90;;;;;;5010322;28;20029;-90
2021/12/06 09:21:37;;;;;;;21.92;4.47;;;9.60;99.90;;;;;;5009173;28;20029;-90
2021/12/06 09:24:07;;;;;;;17.63;4.07;;;9.70;99.90;;;;;;4993403;28;20117;-93
2021/12/06 09:26:36;;;;;;;22.30;3.45;;;9.80;99.90;;;;;;4996389;28;20043;-90
2021/12/06 09:29:04;;;;;;;26.50;3.85;;;9.90;99.90;;;;;;5014538;28;20018;-90
2021/12/06 09:31:30;;;;;;;17.00;3.55;;;9.90;99.90;;;;;;4997396;28;20084;-90
2021/12/06 09:33:55;;;;;;;17.25;3.83;;;9.90;99.90;;;;;;4997456;28;20117;-90
2021/12/06 09:36:22;;;;;;;25.88;3.88;;;10.00;99.90;;;;;;5014451;28;20133;-90
2021/12/06 09:38:51;;;;;;;20.83;4.57;;;10.10;99.90;;;;;;4996967;28;20441;-90
2021/12/06 09:41:25;;;;;;;21.10;3.88;;;10.10;99.90;;;;;;4996693;28;20061;-89
2021/12/06 09:43:53;;;;;;;27.05;4.82;;;10.20;99.90;;;;;;4996386;28;20029;-88
2021/12/06 09:46:20;;;;;;;23.55;3.40;;;10.20;99.90;;;;;;5013421;28;20041;-88
2021/12/06 09:48:48;;;;;;;22.45;3.55;;;10.10;99.90;;;;;;4995310;28;20026;-88
2021/12/06 09:51:25;;;;;;;18.40;3.45;;;10.00;99.90;;;;;;4995263;28;20120;-89
2021/12/06 09:53:52;;;;;;;12.98;2.83;;;10.00;99.90;;;;;;5012953;28;20026;-90
2021/12/06 09:56:26;;;;;;;18.25;2.72;;;10.00;99.90;;;;;;4998525;28;20025;-90
2021/12/06 09:58:52;;;;;;;15.93;3.05;;;10.00;99.90;;;;;;4992756;28;20046;-89
2021/12/06 10:01:26;;;;;;;19.90;2.17;;;10.00;99.90;;;;;;5007348;28;20093;-89
2021/12/06 10:03:58;;;;;;;15.95;2.08;;;10.00;99.90;;;;;;5017901;28;20060;-89
2021/12/06 10:06:27;;;;;;;17.85;2.60;;;10.10;99.90;;;;;;5005399;28;20053;-89
2021/12/06 10:08:56;;;;;;;15.95;2.65;;;10.10;99.90;;;;;;5024743;28;20017;-94
2021/12/06 10:11:25;;;;;;;16.35;2.33;;;10.10;99.90;;;;;;5025123;28;20284;-90
2021/12/06 10:13:51;;;;;;;21.05;2.42;;;10.20;99.90;;;;;;5007669;28;20247;-90
2021/12/06 10:16:19;;;;;;;16.83;2.92;;;10.10;99.90;;;;;;5006698;28;20033;-90
2021/12/06 10:18:45;;;;;;;21.55;3.33;;;10.00;99.90;;;;;;5004749;28;20045;-90
2021/12/06 10:21:12;;;;;;;26.70;2.85;;;10.20;99.90;;;;;;5023056;28;20033;-91
2021/12/06 10:23:41;;;;;;;18.20;3.42;;;10.20;99.90;;;;;;5018116;28;20100;-90
2021/12/06 10:26:09;;;;;;;13.93;2.80;;;10.10;99.90;;;;;;4999940;28;20499;-90
2021/12/06 10:28:43;;;;;;;15.60;2.45;;;10.10;99.90;;;;;;5000175;28;20022;-91
2021/12/06 10:31:11;;;;;;;23.88;4.13;;;10.20;99.90;;;;;;5003936;28;20116;-92
2021/12/06 10:33:47;;;;;;;21.85;3.63;;;10.40;99.90;;;;;;5021922;28;20026;-95
2021/12/06 10:36:18;;;;;;;19.58;3.08;;;10.40;99.90;;;;;;5020756;28;20025;-91
2021/12/06 10:38:52;;;;;;;17.23;2.45;;;10.40;99.90;;;;;;5005084;28;20026;-91
2021/12/06 10:41:25;;;;;;;13.57;2.20;;;10.30;99.90;;;;;;5024306;28;20014;-91
2021/12/06 10:44:10;;;;;;;24.17;2.90;;;10.30;99.90;;;;;;5021963;28;20026;-90
2021/12/06 10:46:42;;;;;;;19.52;2.85;;;10.30;99.90;;;;;;5007008;28;20084;-90
2021/12/06 10:49:12;;;;;;;15.07;2.40;;;10.20;99.90;;;;;;5024636;28;20018;-91
2021/12/06 10:51:38;;;;;;;22.17;3.17;;;10.10;99.90;;;;;;5006555;28;20088;-90
2021/12/06 10:54:17;;;;;;;19.02;3.58;;;10.10;99.90;;;;;;5022591;28;20314;-92
2021/12/06 10:56:47;;;;;;;22.00;2.95;;;10.10;99.90;;;;;;5006605;28;20029;-95
2021/12/06 10:59:26;;;;;;;15.13;2.58;;;10.00;99.90;;;;;;5003860;28;20076;-91
2021/12/06 11:01:55;;;;;;;22.27;3.50;;;10.10;99.90;;;;;;5004746;28;20036;-91
2021/12/06 11:04:26;;;;;;;20.08;2.65;;;10.20;99.90;;;;;;5023049;28;20014;-91
2021/12/06 11:06:55;;;;;;;21.65;3.75;;;10.20;99.90;;;;;;5005805;28;20065;-90
2021/12/06 11:09:26;;;;;;;18.33;2.72;;;10.20;99.90;;;;;;5007211;28;20027;-91
2021/12/06 11:11:59;;;;;;;19.13;4.07;;;10.30;99.90;;;;;;5025182;28;20064;-90
2021/12/06 11:14:30;;;;;;;17.52;3.67;;;10.30;99.90;;;;;;5018020;28;20034;-91
2021/12/06 11:17:01;;;;;;;27.77;3.92;;;10.30;99.90;;;;;;5004052;28;20025;-94
2021/12/06 11:19:29;;;;;;;21.65;3.30;;;10.20;99.90;;;;;;5005226;28;20052;-90
2021/12/06 11:22:09;;;;;;;20.88;3.13;;;10.10;99.90;;;;;;5022937;28;20022;-90
2021/12/06 11:24:40;;;;;;;21.83;4.43;;;10.00;99.90;;;;;;5001946;28;20250;-90
2021/12/06 11:27:23;;;;;;;24.45;5.05;;;10.00;99.90;;;;;;5020961;28;20096;-91
2021/12/06 11:29:52;;;;;;;23.63;4.93;;;10.00;99.90;;;;;;5004775;28;20036;-91
2021/12/06 11:32:28;;;;;;;20.40;3.42;;;10.00;99.90;;;;;;5002563;28;20025;-93
2021/12/06 11:35:12;;;;;;;23.48;3.95;;;9.90;99.90;;;;;;5005710;28;20033;-93
2021/12/06 11:38:03;;;;;;;;;;;;;;;;;;;;;
2021/12/06 11:40:39;;;;;;;25.48;4.47;;;9.80;99.90;;;;;;5018031;28;20105;-96
2021/12/06 11:43:18;;;;;;;21.30;3.38;;;9.90;99.90;;;;;;5002725;28;20069;-95
2021/12/06 11:46:02;;;;;;;19.15;3.08;;;10.00;99.90;;;;;;4980960;28;20030;-93
2021/12/06 11:48:39;;;;;;;21.98;4.18;;;9.90;99.90;;;;;;4983103;28;20030;-94
2021/12/06 11:51:50;;;;;;;;;;;;;;;;;;;;;
2021/12/06 12:23:10;;;;;;;30.65;5.45;;;9.80;99.90;;;;;;5264163;23;20049;-92
2021/12/06 12:25:48;;;;;;;21.70;4.05;;;9.80;99.90;;;;;;4890535;29;20108;-93
2021/12/06 12:28:21;;;;;;;32.22;4.95;;;9.90;99.90;;;;;;4895247;29;20028;-94
2021/12/06 12:30:51;;;;;;;29.52;4.15;;;9.90;99.90;;;;;;4895300;29;20431;-95
2021/12/06 12:33:19;;;;;;;26.40;4.38;;;9.90;99.90;;;;;;4895389;29;20037;-93
2021/12/06 12:35:53;;;;;;;30.23;4.90;;;9.80;99.90;;;;;;4895133;29;20032;-94
2021/12/06 12:38:23;;;;;;;25.08;4.45;;;9.80;99.90;;;;;;4897583;29;20056;-93
2021/12/06 12:40:57;;;;;;;30.83;4.53;;;9.80;99.90;;;;;;4902419;29;20115;-92
2021/12/06 12:43:27;;;;;;;33.63;4.72;;;9.80;99.90;;;;;;4895304;29;20446;-90
2021/12/06 12:46:34;;;;;;;19.65;4.35;;;9.80;99.90;;;;;;4895893;29;20061;-95
2021/12/06 12:49:09;;;;;;;33.17;4.00;;;9.70;99.90;;;;;;4896937;29;20024;-94
2021/12/06 12:51:43;;;;;;;25.33;3.97;;;9.70;99.90;;;;;;4895262;29;20028;-93
2021/12/06 12:54:38;;;;;;;28.08;4.35;;;9.70;99.90;;;;;;4900910;29;20027;-93
2021/12/06 12:57:16;;;;;;;;;;;9.60;99.90;;;;;;4903802;29;20078;-94
2021/12/06 13:00:20;;;;;;;;;;;;;;;;;;;;;
2021/12/06 13:03:17;;;;;;;28.55;4.38;;;9.70;99.90;;;;;;4895689;29;20029;-94
2021/12/06 13:05:43;;;;;;;29.23;3.90;;;9.60;99.90;;;;;;4892955;29;20513;-92
2021/12/06 13:08:09;;;;;;;30.33;3.40;;;9.70;99.90;;;;;;4895227;29;20117;-93
2021/12/06 13:10:44;;;;;;;17.13;1.98;;;9.70;99.90;;;;;;4895611;29;20068;-94
2021/12/06 13:13:23;;;;;;;16.35;1.80;;;9.70;99.90;;;;;;4907121;29;20040;-94
2021/12/06 13:18:47;;;;;;;;;;;;;;;;;;;;;
2021/12/06 13:21:48;;;;;;;;;;;9.70;99.90;;;;;;4896803;29;20037;-94
2021/12/06 13:27:47;;;;;;;18.05;2.10;;;9.60;99.90;;;;;;4856966;29;20552;-96
2021/12/06 13:30:20;;;;;;;19.25;2.45;;;9.70;99.90;;;;;;4857587;29;20030;-94
2021/12/06 13:33:28;;;;;;;18.67;2.63;;;9.70;99.90;;;;;;4857740;29;20045;-93
2021/12/06 13:36:01;;;;;;;12.82;1.98;;;9.60;99.90;;;;;;4858935;29;20411;-94
2021/12/06 13:38:38;;;;;;;22.83;2.88;;;9.60;99.90;;;;;;4857690;29;20026;-94
2021/12/06 13:41:32;;;;;;;19.75;2.28;;;9.60;99.90;;;;;;4858285;29;20048;-92
2021/12/06 13:44:14;;;;;;;21.17;2.20;;;9.50;99.90;;;;;;4858521;29;20036;-93
2021/12/06 13:47:12;;;;;;;23.85;3.70;;;9.40;99.90;;;;;;4857267;29;20052;-93
2021/12/06 13:50:23;;;;;;;29.25;3.10;;;9.50;99.90;;;;;;4857602;29;20033;-94
2021/12/06 13:56:08;;;;;;;23.95;3.53;;;9.50;99.90;;;;;;4821809;29;20046;-92
2021/12/06 13:58:53;;;;;;;19.58;3.25;;;9.60;99.90;;;;;;4857753;29;20128;-93
2021/12/06 14:01:34;;;;;;;37.13;3.78;;;9.50;99.90;;;;;;4857635;29;20036;-94
2021/12/06 14:04:33;;;;;;;18.65;2.97;;;9.50;99.90;;;;;;4857136;29;20116;-94
2021/12/06 14:07:10;;;;;;;31.10;2.88;;;9.60;99.90;;;;;;4850922;29;20093;-93
2021/12/06 14:09:55;;;;;;;77.57;13.45;;;9.50;99.90;;;;;;4857400;29;20116;-92
2021/12/06 14:12:29;;;;;;;24.65;2.80;;;9.50;99.90;;;;;;4859291;29;20033;-94
2021/12/06 14:15:17;;;;;;;;;;;;;;;;;;;;;
2021/12/06 14:17:46;;;;;;;14.15;2.10;;;9.50;99.90;;;;;;4862263;29;20782;-95
2021/12/06 14:20:15;;;;;;;14.32;2.25;;;9.50;99.90;;;;;;4860537;29;20044;-93
2021/12/06 14:22:43;;;;;;;16.13;1.80;;;9.50;99.90;;;;;;4871823;29;20072;-93
2021/12/06 14:25:13;;;;;;;15.43;2.10;;;9.50;99.90;;;;;;4897462;29;20036;-92
2021/12/06 14:27:40;;;;;;;21.25;3.13;;;9.60;99.90;;;;;;4897734;29;20047;-93
2021/12/06 14:30:17;;;;;;;19.40;1.88;;;9.70;99.90;;;;;;4903894;29;20056;-94
2021/12/06 14:32:53;;;;;;;13.63;1.90;;;9.60;99.90;;;;;;4898715;29;20089;-93
2021/12/06 14:35:23;;;;;;;26.00;2.83;;;9.70;99.90;;;;;;4897018;29;20329;-92
2021/12/06 14:37:50;;;;;;;12.80;1.50;;;9.70;99.90;;;;;;4897666;29;20025;-92
2021/12/06 14:40:23;;;;;;;18.25;1.75;;;9.70;99.90;;;;;;4897137;29;20036;-94
2021/12/06 14:42:49;;;;;;;13.75;1.58;;;9.80;99.90;;;;;;4895669;29;20112;-92
2021/12/06 14:45:19;;;;;;;21.83;2.80;;;9.80;99.90;;;;;;4897371;29;20036;-93
2021/12/06 14:47:59;;;;;;;21.27;2.20;;;9.80;99.90;;;;;;4897789;29;20052;-93
2021/12/06 14:50:49;;;;;;;11.65;2.42;;;9.90;99.90;;;;;;4897159;29;20067;-94
2021/12/06 14:53:21;;;;;;;13.75;2.30;;;9.90;99.90;;;;;;4897185;29;20025;-92
2021/12/06 14:56:13;;;;;;;16.70;1.67;;;10.00;99.90;;;;;;4896742;29;20065;-92